Huvudsida
METAR-TAF:

METAR-TAF

Flygplatser :

El Salvador, El Salvador

latitud: 13-26N, longitud: 089-03W, höjd: 25 m

Aktuellt väderrapport

Denna rapport gjordes för 1 timme och 4 minuter sedan, klockan 07:50 UTC
Vind 11 kt från nordost
Temperatur 24°C
Fuktighet 57%
Tryck 1014 hPa
Sikt 10 km eller mer
Inga moln under 1 500 m eller inga cumulonimbus

METAR: MSLP 160750Z 04011KT CAVOK 24/15 Q1013 A2993 NOSIG

Tid: 02:54 (08:54 UTC)

Väderprognos

Denna rapport gjordes för 11 timmar och 29 minuter sedan, klockan 21:25 UTC
Prognos gäller från 16 kl. 00 UTC till 16 kl. 24 UTC
Vind 15 kt från nord/nordost i byarna ända upp till 25 kt
Sikt 10 km eller mer
Inga moln under 1 500 m eller inga cumulonimbus
Temporärt
från 16 kl. 18 UTC till 16 kl. 24 UTC
Sikt 10 km eller mer
Spridda moln på en höjd av 6000 ft

TAF: MSLP 152125Z 1600/1624 02015G25KT CAVOK TX34/1618Z TN20/1610Z TEMPO 1618/1624 9999 SCT060

Aktuella väderrapporter och prognoser från 4000 flygplatser (METAR- och TAF-rapporter).

De tillgängliga stationerna syns som gula och röda prickar på kartan.

För musen över prickarna för att se namnen på stationerna.

Klicka sedan för att få väderrapporter och prognoser.

För att ändra kartan: Klicka på de gröna knapparna med ett svart kors på för att zooma in; den gröna knappen med ett streck på för att zooma ut; eller på de gröna pilarna för angränsande kartor.


METAR-TAF: